DLH456 EDDF-KLAX
Flight info
| Callsign | DLH456 |
|---|---|
| Flight time | N/A |
| Altitude | 36000 |
| Route | OBOKA3M OBOKA Z28 DIBIR DCT BUDIP DCT RAVLO Y70 OTBED DCT ABLUC DCT OZRAT DCT WETFI DCT DODIG DCT REVNU DCT PIKIL/M082F380 DCT 57N020W 57N030W 57N040W 56N050W DCT JANJO/N0476F380 DCT DENSO DCT AGLOL/N0488F400 DCT MERNU DCT XEXUL DCT BLUOX DCT RAP J158 DDY J107 NORRA J100 LAS Q70 HAILO DCT KOPLE BOGET2 |
| Aircraft | B748/H-SADE2E3GHIJ3J4J5M1P2RWXYZ/LB1D1 |
Departure
| Time | N/A |
|---|---|
| Airport | Frankfurt Main Airport (EDDF) |
Arrival
| Time | 2026-05-04 17:05 |
|---|---|
| Airport | Los Angeles International Airport (KLAX) |
| Time | Latitude | Longitude | Altitude | Speed | Heading |
|---|---|---|---|---|---|
| 2026-05-04 15:28 | 39.26284 | -111.95017 | 26045 ft | 208 kts | 227° |
| 2026-05-04 15:29 | 39.25229 | -111.96285 | 26031 ft | 207 kts | 227° |
| 2026-05-04 15:30 | 39.20990 | -112.01361 | 25943 ft | 208 kts | 227° |
| 2026-05-04 15:30 | 39.17828 | -112.05139 | 26067 ft | 203 kts | 226° |
| 2026-05-04 15:31 | 39.15800 | -112.07562 | 25895 ft | 191 kts | 228° |
| 2026-05-04 15:31 | 39.14834 | -112.08722 | 25556 ft | 190 kts | 228° |
| 2026-05-04 15:32 | 39.11726 | -112.12428 | 24103 ft | 199 kts | 226° |
| 2026-05-04 15:32 | 39.09781 | -112.14745 | 23717 ft | 186 kts | 226° |
| 2026-05-04 15:33 | 39.07801 | -112.17107 | 22816 ft | 197 kts | 226° |
| 2026-05-04 15:34 | 39.04700 | -112.20795 | 23202 ft | 207 kts | 226° |
| 2026-05-04 15:34 | 39.03638 | -112.22058 | 23403 ft | 209 kts | 226° |
| 2026-05-04 15:34 | 39.01485 | -112.24617 | 23736 ft | 213 kts | 226° |
| 2026-05-04 15:35 | 38.99193 | -112.27310 | 24036 ft | 222 kts | 227° |
| 2026-05-04 15:35 | 38.98144 | -112.28662 | 24068 ft | 208 kts | 233° |
| 2026-05-04 15:35 | 38.97307 | -112.30177 | 23745 ft | 208 kts | 239° |
| 2026-05-04 15:36 | 38.95745 | -112.33179 | 23312 ft | 199 kts | 233° |
| 2026-05-04 15:36 | 38.94830 | -112.34544 | 22861 ft | 205 kts | 230° |
| 2026-05-04 15:36 | 38.93820 | -112.35847 | 22551 ft | 205 kts | 224° |
| 2026-05-04 15:37 | 38.92687 | -112.36907 | 22385 ft | 200 kts | 214° |
| 2026-05-04 15:37 | 38.91416 | -112.37659 | 22099 ft | 200 kts | 207° |
| 2026-05-04 15:37 | 38.90184 | -112.38302 | 21972 ft | 190 kts | 210° |
| 2026-05-04 15:37 | 38.89038 | -112.39105 | 21526 ft | 188 kts | 227° |
| 2026-05-04 15:38 | 38.88124 | -112.40423 | 20897 ft | 206 kts | 236° |
| 2026-05-04 15:38 | 38.87320 | -112.41890 | 21040 ft | 187 kts | 247° |
| 2026-05-04 15:38 | 38.86824 | -112.43391 | 20857 ft | 186 kts | 252° |
| 2026-05-04 15:38 | 38.86430 | -112.45094 | 20243 ft | 207 kts | 252° |
| 2026-05-04 15:39 | 38.85785 | -112.46725 | 20303 ft | 204 kts | 227° |
| 2026-05-04 15:39 | 38.84693 | -112.47808 | 20690 ft | 195 kts | 203° |
| 2026-05-04 15:39 | 38.81975 | -112.48399 | 20614 ft | 206 kts | 206° |
| 2026-05-04 15:40 | 38.80692 | -112.49197 | 20947 ft | 208 kts | 216° |
| 2026-05-04 15:40 | 38.79533 | -112.50401 | 21050 ft | 222 kts | 224° |
| 2026-05-04 15:40 | 38.78420 | -112.51835 | 21129 ft | 232 kts | 226° |
| 2026-05-04 15:40 | 38.77238 | -112.53297 | 21128 ft | 246 kts | 224° |
| 2026-05-04 15:41 | 38.75925 | -112.54860 | 21139 ft | 267 kts | 224° |
| 2026-05-04 15:41 | 38.74502 | -112.56491 | 21129 ft | 282 kts | 223° |
| 2026-05-04 15:41 | 38.73010 | -112.58222 | 21111 ft | 297 kts | 224° |
| 2026-05-04 15:41 | 38.71456 | -112.60054 | 21053 ft | 311 kts | 224° |
| 2026-05-04 15:42 | 38.69833 | -112.61969 | 21037 ft | 323 kts | 224° |
| 2026-05-04 15:42 | 38.68145 | -112.63947 | 21028 ft | 337 kts | 223° |
| 2026-05-04 15:42 | 38.66336 | -112.66013 | 21027 ft | 356 kts | 224° |
| 2026-05-04 15:42 | 38.64505 | -112.68186 | 21182 ft | 362 kts | 224° |
| 2026-05-04 15:43 | 38.62648 | -112.70389 | 21367 ft | 367 kts | 224° |
| 2026-05-04 15:43 | 38.60748 | -112.72600 | 21532 ft | 371 kts | 224° |
| 2026-05-04 15:43 | 38.58823 | -112.74837 | 21706 ft | 376 kts | 224° |
| 2026-05-04 15:43 | 38.56883 | -112.77102 | 21872 ft | 380 kts | 224° |
| 2026-05-04 15:44 | 38.54926 | -112.79389 | 22087 ft | 383 kts | 224° |
| 2026-05-04 15:44 | 38.52950 | -112.81692 | 22309 ft | 385 kts | 224° |
| 2026-05-04 15:44 | 38.50991 | -112.83970 | 22516 ft | 387 kts | 224° |
| 2026-05-04 15:44 | 38.48997 | -112.86289 | 22723 ft | 389 kts | 224° |
| 2026-05-04 15:45 | 38.46987 | -112.88626 | 22936 ft | 390 kts | 224° |
| 2026-05-04 15:45 | 38.44981 | -112.90956 | 23196 ft | 390 kts | 224° |
| 2026-05-04 15:45 | 38.42973 | -112.93286 | 23444 ft | 390 kts | 224° |
| 2026-05-04 15:45 | 38.40963 | -112.95617 | 23665 ft | 390 kts | 224° |
| 2026-05-04 15:46 | 38.38951 | -112.97947 | 23870 ft | 390 kts | 224° |
| 2026-05-04 15:46 | 38.36946 | -113.00267 | 24077 ft | 389 kts | 223° |
| 2026-05-04 15:46 | 38.34781 | -113.02348 | 24287 ft | 391 kts | 216° |
| 2026-05-04 15:46 | 38.32489 | -113.04211 | 24479 ft | 390 kts | 216° |
| 2026-05-04 15:47 | 38.30203 | -113.06073 | 24679 ft | 390 kts | 216° |
| 2026-05-04 15:47 | 38.27922 | -113.07930 | 24868 ft | 389 kts | 216° |
| 2026-05-04 15:47 | 38.25645 | -113.09781 | 25066 ft | 388 kts | 216° |
| 2026-05-04 15:47 | 38.23401 | -113.11603 | 25259 ft | 387 kts | 216° |
| 2026-05-04 15:48 | 38.21135 | -113.13442 | 25453 ft | 386 kts | 216° |
| 2026-05-04 15:48 | 38.18870 | -113.15279 | 25654 ft | 384 kts | 216° |
| 2026-05-04 15:48 | 38.14370 | -113.18925 | 26066 ft | 382 kts | 216° |
| 2026-05-04 15:49 | 38.12128 | -113.20739 | 26269 ft | 381 kts | 216° |
| 2026-05-04 15:49 | 38.09886 | -113.22551 | 26464 ft | 380 kts | 217° |
| 2026-05-04 15:49 | 38.07658 | -113.24353 | 26666 ft | 380 kts | 217° |
| 2026-05-04 15:49 | 38.05431 | -113.26151 | 26874 ft | 379 kts | 217° |
| 2026-05-04 15:50 | 38.03209 | -113.27943 | 27095 ft | 378 kts | 217° |
| 2026-05-04 15:50 | 38.01021 | -113.29707 | 27310 ft | 377 kts | 217° |
| 2026-05-04 15:50 | 37.98810 | -113.31489 | 27516 ft | 376 kts | 217° |
| 2026-05-04 15:50 | 37.96601 | -113.33270 | 27710 ft | 376 kts | 217° |
| 2026-05-04 15:51 | 37.94391 | -113.35051 | 27885 ft | 374 kts | 218° |
| 2026-05-04 15:51 | 37.92191 | -113.36813 | 28082 ft | 378 kts | 217° |
| 2026-05-04 15:51 | 37.89920 | -113.38595 | 28265 ft | 389 kts | 217° |
| 2026-05-04 15:51 | 37.87602 | -113.40440 | 28492 ft | 398 kts | 217° |
| 2026-05-04 15:52 | 37.85231 | -113.42345 | 28688 ft | 407 kts | 217° |
| 2026-05-04 15:52 | 37.82809 | -113.44275 | 28840 ft | 414 kts | 217° |
| 2026-05-04 15:52 | 37.80353 | -113.46227 | 28997 ft | 415 kts | 218° |
| 2026-05-04 15:52 | 37.77972 | -113.48177 | 29004 ft | 399 kts | 218° |
| 2026-05-04 15:53 | 37.75702 | -113.50000 | 29012 ft | 387 kts | 218° |
| 2026-05-04 15:53 | 37.73442 | -113.51787 | 29005 ft | 379 kts | 218° |
| 2026-05-04 15:53 | 37.71244 | -113.53519 | 29008 ft | 366 kts | 218° |
| 2026-05-04 15:53 | 37.69127 | -113.55195 | 29008 ft | 353 kts | 218° |
| 2026-05-04 15:54 | 37.65091 | -113.58415 | 29145 ft | 333 kts | 219° |
| 2026-05-04 15:54 | 37.63162 | -113.59930 | 29241 ft | 319 kts | 219° |
| 2026-05-04 15:54 | 37.61315 | -113.61382 | 29332 ft | 306 kts | 219° |
| 2026-05-04 15:55 | 37.59549 | -113.62785 | 29419 ft | 293 kts | 220° |
| 2026-05-04 15:55 | 37.57835 | -113.64149 | 29405 ft | 293 kts | 220° |
| 2026-05-04 15:55 | 37.56098 | -113.65531 | 29419 ft | 299 kts | 220° |
| 2026-05-04 15:55 | 37.54348 | -113.66914 | 29559 ft | 302 kts | 220° |
| 2026-05-04 15:56 | 37.52556 | -113.68327 | 29699 ft | 305 kts | 220° |
| 2026-05-04 15:56 | 37.50750 | -113.69752 | 29865 ft | 308 kts | 220° |
| 2026-05-04 15:56 | 37.48924 | -113.71193 | 29981 ft | 311 kts | 220° |
| 2026-05-04 15:56 | 37.47084 | -113.72645 | 30108 ft | 313 kts | 220° |
| 2026-05-04 15:57 | 37.45228 | -113.74107 | 30237 ft | 315 kts | 220° |
| 2026-05-04 15:57 | 37.43360 | -113.75579 | 30343 ft | 317 kts | 219° |
| 2026-05-04 15:57 | 37.41494 | -113.77046 | 30486 ft | 317 kts | 219° |
| 2026-05-04 15:57 | 37.39641 | -113.78501 | 30608 ft | 317 kts | 219° |
| 2026-05-04 15:58 | 37.37765 | -113.79977 | 30722 ft | 318 kts | 219° |
| 2026-05-04 15:58 | 37.35879 | -113.81463 | 30855 ft | 320 kts | 219° |
| 2026-05-04 15:58 | 37.33984 | -113.82950 | 30978 ft | 322 kts | 219° |
| 2026-05-04 15:58 | 37.32074 | -113.84447 | 31104 ft | 324 kts | 219° |
| 2026-05-04 15:59 | 37.30160 | -113.85949 | 31212 ft | 325 kts | 220° |
| 2026-05-04 15:59 | 37.28237 | -113.87457 | 31342 ft | 326 kts | 219° |
| 2026-05-04 15:59 | 37.26304 | -113.88970 | 31463 ft | 327 kts | 219° |
| 2026-05-04 15:59 | 37.24363 | -113.90489 | 31591 ft | 328 kts | 220° |
| 2026-05-04 16:00 | 37.22423 | -113.92007 | 31704 ft | 329 kts | 220° |
| 2026-05-04 16:00 | 37.20479 | -113.93527 | 31853 ft | 330 kts | 220° |
| 2026-05-04 16:00 | 37.18526 | -113.95054 | 31965 ft | 331 kts | 219° |
| 2026-05-04 16:00 | 37.16595 | -113.96562 | 32094 ft | 332 kts | 219° |
| 2026-05-04 16:01 | 37.14632 | -113.98094 | 32222 ft | 332 kts | 219° |
| 2026-05-04 16:01 | 37.12669 | -113.99625 | 32341 ft | 333 kts | 219° |
| 2026-05-04 16:01 | 37.10695 | -114.01164 | 32462 ft | 334 kts | 219° |
| 2026-05-04 16:01 | 37.08831 | -114.02616 | 32585 ft | 334 kts | 219° |
| 2026-05-04 16:02 | 37.06979 | -114.04058 | 32701 ft | 335 kts | 220° |
| 2026-05-04 16:02 | 37.05002 | -114.05596 | 32830 ft | 335 kts | 220° |
| 2026-05-04 16:02 | 37.01713 | -114.08154 | 33033 ft | 334 kts | 219° |
| 2026-05-04 16:03 | 36.99735 | -114.09690 | 33167 ft | 334 kts | 219° |
| 2026-05-04 16:03 | 36.97759 | -114.11224 | 33301 ft | 334 kts | 219° |
| 2026-05-04 16:03 | 36.95145 | -114.13251 | 33456 ft | 333 kts | 219° |
| 2026-05-04 16:03 | 36.93176 | -114.14777 | 33589 ft | 333 kts | 219° |
| 2026-05-04 16:04 | 36.91848 | -114.15806 | 33692 ft | 332 kts | 220° |
| 2026-05-04 16:04 | 36.87919 | -114.18849 | 33917 ft | 332 kts | 220° |
| 2026-05-04 16:04 | 36.85979 | -114.20349 | 34017 ft | 331 kts | 220° |
| 2026-05-04 16:05 | 36.84020 | -114.21864 | 34136 ft | 331 kts | 220° |
| 2026-05-04 16:05 | 36.82068 | -114.23372 | 34245 ft | 330 kts | 220° |
| 2026-05-04 16:05 | 36.78191 | -114.26402 | 34463 ft | 326 kts | 223° |
| 2026-05-04 16:06 | 36.76380 | -114.28083 | 34560 ft | 323 kts | 225° |
| 2026-05-04 16:06 | 36.71606 | -114.33823 | 34985 ft | 314 kts | 231° |
| 2026-05-04 16:07 | 36.70107 | -114.35788 | 35161 ft | 311 kts | 231° |
| 2026-05-04 16:07 | 36.65698 | -114.41590 | 35505 ft | 308 kts | 231° |
| 2026-05-04 16:08 | 36.64215 | -114.43541 | 35456 ft | 311 kts | 231° |
| 2026-05-04 16:09 | 36.56674 | -114.53431 | 35492 ft | 320 kts | 231° |
| 2026-05-04 16:10 | 36.50491 | -114.61520 | 35454 ft | 325 kts | 231° |
| 2026-05-04 16:11 | 36.44207 | -114.69721 | 35512 ft | 329 kts | 231° |
| 2026-05-04 16:12 | 36.34631 | -114.82167 | 35541 ft | 335 kts | 230° |
| 2026-05-04 16:13 | 36.28120 | -114.90445 | 35590 ft | 337 kts | 230° |
| 2026-05-04 16:14 | 36.21538 | -114.98807 | 35689 ft | 340 kts | 230° |
| 2026-05-04 16:16 | 36.13245 | -115.09314 | 35821 ft | 342 kts | 230° |
| 2026-05-04 16:16 | 36.07426 | -115.14532 | 35857 ft | 358 kts | 213° |
| 2026-05-04 16:17 | 36.02540 | -115.16319 | 35921 ft | 378 kts | 200° |
| 2026-05-04 16:18 | 35.91844 | -115.17227 | 35929 ft | 386 kts | 197° |
| 2026-05-04 16:19 | 35.83784 | -115.17844 | 35814 ft | 387 kts | 197° |
| 2026-05-04 16:19 | 35.78392 | -115.18259 | 35817 ft | 388 kts | 197° |
| 2026-05-04 16:20 | 35.64917 | -115.19290 | 35884 ft | 390 kts | 197° |
| 2026-05-04 16:21 | 35.57604 | -115.22063 | 36022 ft | 355 kts | 219° |
| 2026-05-04 16:22 | 35.53803 | -115.25729 | 36075 ft | 343 kts | 231° |
| 2026-05-04 16:23 | 35.44194 | -115.38735 | 36186 ft | 343 kts | 232° |
| 2026-05-04 16:25 | 35.34567 | -115.51712 | 35928 ft | 344 kts | 231° |
| 2026-05-04 16:26 | 35.28032 | -115.60502 | 35177 ft | 364 kts | 231° |
| 2026-05-04 16:26 | 35.22756 | -115.67570 | 34176 ft | 386 kts | 230° |
| 2026-05-04 16:27 | 35.19199 | -115.72326 | 33472 ft | 365 kts | 230° |
| 2026-05-04 16:28 | 35.14231 | -115.78967 | 32262 ft | 347 kts | 229° |
| 2026-05-04 16:28 | 35.10192 | -115.85908 | 31177 ft | 320 kts | 236° |
| 2026-05-04 16:29 | 35.05743 | -115.94660 | 30170 ft | 288 kts | 237° |
| 2026-05-04 16:30 | 35.02612 | -116.00809 | 29382 ft | 279 kts | 236° |
| 2026-05-04 16:31 | 35.00573 | -116.04820 | 28873 ft | 277 kts | 236° |
| 2026-05-04 16:31 | 34.97550 | -116.10747 | 28154 ft | 275 kts | 237° |
| 2026-05-04 16:32 | 34.94519 | -116.16680 | 27444 ft | 274 kts | 237° |
| 2026-05-04 16:33 | 34.92501 | -116.20625 | 27001 ft | 274 kts | 237° |
| 2026-05-04 16:33 | 34.90762 | -116.24764 | 26567 ft | 274 kts | 242° |
| 2026-05-04 16:34 | 34.89125 | -116.28966 | 26118 ft | 274 kts | 242° |
| 2026-05-04 16:34 | 34.88313 | -116.31063 | 25917 ft | 272 kts | 242° |
| 2026-05-04 16:35 | 34.85880 | -116.37335 | 25272 ft | 273 kts | 242° |
| 2026-05-04 16:35 | 34.83448 | -116.43588 | 24661 ft | 273 kts | 243° |
| 2026-05-04 16:36 | 34.82635 | -116.45676 | 24447 ft | 273 kts | 243° |
| 2026-05-04 16:36 | 34.81006 | -116.49856 | 24050 ft | 273 kts | 243° |
| 2026-05-04 16:37 | 34.79377 | -116.54030 | 23654 ft | 272 kts | 243° |
| 2026-05-04 16:37 | 34.78533 | -116.56090 | 23434 ft | 272 kts | 239° |
| 2026-05-04 16:37 | 34.76594 | -116.59989 | 22976 ft | 270 kts | 239° |
| 2026-05-04 16:38 | 34.74659 | -116.63904 | 22496 ft | 269 kts | 239° |
| 2026-05-04 16:39 | 34.71746 | -116.69770 | 21802 ft | 270 kts | 239° |
| 2026-05-04 16:39 | 34.69797 | -116.73686 | 21338 ft | 270 kts | 239° |
| 2026-05-04 16:40 | 34.67867 | -116.77565 | 20892 ft | 269 kts | 239° |
| 2026-05-04 16:40 | 34.65919 | -116.81476 | 20452 ft | 270 kts | 239° |
| 2026-05-04 16:41 | 34.63968 | -116.85385 | 20008 ft | 269 kts | 239° |
| 2026-05-04 16:41 | 34.61062 | -116.91202 | 19366 ft | 270 kts | 239° |
| 2026-05-04 16:42 | 34.58134 | -116.97055 | 18726 ft | 270 kts | 239° |
| 2026-05-04 16:43 | 34.56187 | -117.00940 | 18317 ft | 269 kts | 239° |
| 2026-05-04 16:43 | 34.54262 | -117.04777 | 17861 ft | 269 kts | 239° |
| 2026-05-04 16:43 | 34.53276 | -117.06740 | 17624 ft | 268 kts | 239° |
| 2026-05-04 16:44 | 34.49385 | -117.14483 | 16715 ft | 268 kts | 239° |
| 2026-05-04 16:45 | 34.47445 | -117.18336 | 16266 ft | 267 kts | 239° |
| 2026-05-04 16:46 | 34.44541 | -117.24095 | 15610 ft | 266 kts | 238° |
| 2026-05-04 16:46 | 34.42610 | -117.27919 | 15174 ft | 266 kts | 238° |
| 2026-05-04 16:47 | 34.40676 | -117.31746 | 14755 ft | 266 kts | 238° |
| 2026-05-04 16:47 | 34.38753 | -117.35546 | 14359 ft | 266 kts | 238° |
| 2026-05-04 16:48 | 34.36173 | -117.40638 | 13797 ft | 267 kts | 238° |
| 2026-05-04 16:48 | 34.35207 | -117.42545 | 13566 ft | 266 kts | 238° |
| 2026-05-04 16:49 | 34.33262 | -117.46375 | 13095 ft | 268 kts | 238° |
| 2026-05-04 16:49 | 34.31636 | -117.49578 | 12726 ft | 268 kts | 238° |
| 2026-05-04 16:50 | 34.29673 | -117.53436 | 12283 ft | 267 kts | 238° |
| 2026-05-04 16:50 | 34.27729 | -117.57257 | 11793 ft | 263 kts | 238° |
| 2026-05-04 16:51 | 34.25793 | -117.61057 | 11394 ft | 268 kts | 238° |
| 2026-05-04 16:51 | 34.24811 | -117.62980 | 11187 ft | 269 kts | 238° |
| 2026-05-04 16:51 | 34.22858 | -117.66807 | 10738 ft | 267 kts | 238° |
| 2026-05-04 16:52 | 34.20929 | -117.70587 | 10302 ft | 264 kts | 238° |
| 2026-05-04 16:52 | 34.19953 | -117.72490 | 10097 ft | 267 kts | 238° |
| 2026-05-04 16:53 | 34.18022 | -117.76261 | 9662 ft | 266 kts | 238° |
| 2026-05-04 16:53 | 34.15149 | -117.81867 | 8939 ft | 259 kts | 238° |
| 2026-05-04 16:54 | 34.14205 | -117.83709 | 8693 ft | 258 kts | 238° |
| 2026-05-04 16:55 | 34.10443 | -117.91032 | 7735 ft | 256 kts | 238° |
| 2026-05-04 16:55 | 34.08583 | -117.94647 | 7223 ft | 241 kts | 239° |
| 2026-05-04 16:56 | 34.06973 | -117.97771 | 6720 ft | 203 kts | 239° |
| 2026-05-04 16:56 | 34.04813 | -118.01961 | 5880 ft | 198 kts | 239° |
| 2026-05-04 16:57 | 34.04074 | -118.03384 | 5569 ft | 202 kts | 241° |
| 2026-05-04 16:57 | 34.02621 | -118.06202 | 5057 ft | 190 kts | 239° |
| 2026-05-04 16:58 | 34.00675 | -118.09982 | 4170 ft | 171 kts | 239° |
| 2026-05-04 16:58 | 34.00055 | -118.11183 | 4003 ft | 162 kts | 239° |
| 2026-05-04 16:59 | 33.98957 | -118.13300 | 3978 ft | 143 kts | 239° |
| 2026-05-04 17:00 | 33.97382 | -118.17584 | 3670 ft | 134 kts | 256° |
| 2026-05-04 17:00 | 33.96998 | -118.20962 | 3161 ft | 139 kts | 260° |
| 2026-05-04 17:01 | 33.96755 | -118.23291 | 2906 ft | 140 kts | 261° |
| 2026-05-04 17:01 | 33.96514 | -118.25643 | 2512 ft | 141 kts | 261° |
| 2026-05-04 17:02 | 33.96277 | -118.27960 | 2144 ft | 139 kts | 261° |
| 2026-05-04 17:02 | 33.96052 | -118.30168 | 1741 ft | 126 kts | 261° |
| 2026-05-04 17:03 | 33.95944 | -118.31210 | 1480 ft | 125 kts | 261° |
| 2026-05-04 17:03 | 33.95841 | -118.32244 | 1231 ft | 122 kts | 260° |
| 2026-05-04 17:03 | 33.95560 | -118.34292 | 996 ft | 129 kts | 262° |
| 2026-05-04 17:04 | 33.95381 | -118.36391 | 814 ft | 128 kts | 264° |
| 2026-05-04 17:04 | 33.95177 | -118.38496 | 413 ft | 123 kts | 262° |
| 2026-05-04 17:05 | 33.94983 | -118.40428 | 109 ft | 108 kts | 262° |
| 2026-05-04 17:05 | 33.94861 | -118.41655 | 106 ft | 36 kts | 262° |
| 2026-05-04 17:06 | 33.94813 | -118.41849 | 105 ft | 0 kts | 234° |
| 2026-05-04 17:06 | 33.94812 | -118.41852 | 106 ft | 2 kts | 234° |
| 2026-05-04 17:07 | 33.94631 | -118.41918 | 104 ft | 9 kts | 152° |
| 2026-05-04 17:07 | 33.94618 | -118.41899 | 104 ft | 2 kts | 110° |
| 2026-05-04 17:07 | 33.94621 | -118.41872 | 105 ft | 7 kts | 80° |
| 2026-05-04 17:07 | 33.94629 | -118.41806 | 105 ft | 11 kts | 81° |
| 2026-05-04 17:08 | 33.94623 | -118.41740 | 105 ft | 11 kts | 105° |
| 2026-05-04 17:08 | 33.94582 | -118.41689 | 105 ft | 6 kts | 154° |
| 2026-05-04 17:08 | 33.94564 | -118.41672 | 103 ft | 3 kts | 137° |
| 2026-05-04 17:09 | 33.94550 | -118.41654 | 104 ft | 2 kts | 121° |
| 2026-05-04 17:09 | 33.94548 | -118.41632 | 107 ft | 1 kts | 92° |
| 2026-05-04 17:09 | 33.94548 | -118.41622 | 107 ft | 0 kts | 90° |